Time;durP1;ratioP1;P1;durP2;ratioP2;P2;SDS_P1;SDS_P2;PMS_P1;PMS_P2;Temp;Humidity;BMP_temperature;BMP_pressure;BME280_temperature;BME280_humidity;BME280_pressure;Samples;Min_cycle;Max_cycle;Signal;HPM_P1;HPM_P2
2022/09/09 00:02:19;;;;;;;15.63;7.35;;;25.80;99.90;;;;;;4812652;29;20038;-93
2022/09/09 00:42:09;;;;;;;12.77;5.83;;;25.80;99.90;;;;;;5990701;23;20027;31
2022/09/09 03:06:12;;;;;;;17.05;7.22;;;25.70;99.90;;;;;;5446021;23;20139;-92
2022/09/09 03:09:10;;;;;;;15.27;6.50;;;25.70;99.90;;;;;;4884346;29;20033;-94
2022/09/09 03:11:56;;;;;;;18.27;7.00;;;25.70;99.90;;;;;;4878185;29;20052;-92
2022/09/09 03:14:45;;;;;;;16.48;7.55;;;25.70;99.90;;;;;;4885951;29;20562;-91
2022/09/09 03:18:24;;;;;;;;;;;;;;;;;;;;;
2022/09/09 06:45:13;;;;;;;9.90;5.75;;;29.20;99.90;;;;;;5722591;23;20053;-93
2022/09/09 06:47:49;;;;;;;17.40;5.63;;;28.70;99.90;;;;;;4866093;29;20074;-93
2022/09/09 06:53:36;;;;;;;13.55;4.95;;;28.20;99.90;;;;;;5386348;23;20043;-91
2022/09/09 06:57:00;;;;;;;14.77;5.32;;;28.10;99.90;;;;;;4891330;29;20040;-92
2022/09/09 07:58:03;;;;;;;12.13;6.78;;;30.30;99.90;;;;;;5526850;23;20317;-80
2022/09/09 08:00:43;;;;;;;;;;;;;;;;;;;;;
2022/09/09 08:03:10;;;;;;;12.30;6.72;;;30.60;99.90;;;;;;4886369;29;20068;-90
2022/09/09 08:05:48;;;;;;;13.32;6.40;;;30.60;99.90;;;;;;4870822;29;20470;-92
2022/09/09 08:08:19;;;;;;;14.55;7.03;;;30.70;99.90;;;;;;4888333;29;20044;-93
2022/09/09 08:10:45;;;;;;;12.18;6.95;;;30.90;99.90;;;;;;4870244;29;20446;-90
2022/09/09 08:13:12;;;;;;;15.23;7.07;;;31.10;99.90;;;;;;4869689;29;20036;-76
2022/09/09 08:15:40;;;;;;;11.45;7.18;;;31.30;99.90;;;;;;4901000;29;20104;-76
2022/09/09 08:18:07;;;;;;;15.43;7.47;;;31.10;99.90;;;;;;4901060;29;20136;-77
2022/09/09 08:20:37;;;;;;;18.02;7.13;;;30.90;99.90;;;;;;4883996;29;20025;-76
2022/09/09 08:23:04;;;;;;;13.05;7.93;;;31.00;99.90;;;;;;4868786;29;20487;-78
2022/09/09 08:25:31;;;;;;;17.90;6.85;;;31.40;99.90;;;;;;4901043;29;20494;-77
2022/09/09 08:27:58;;;;;;;14.38;6.90;;;31.60;99.90;;;;;;4884610;29;20169;-84
2022/09/09 08:30:42;;;;;;;13.93;7.35;;;31.20;99.90;;;;;;4942445;23;20080;-92
2022/09/09 08:33:21;;;;;;;20.17;7.13;;;31.20;99.90;;;;;;4885856;29;20053;-92
2022/09/09 08:35:52;;;;;;;12.85;7.10;;;31.10;99.90;;;;;;4833111;29;20072;-92
2022/09/09 08:38:19;;;;;;;17.88;7.50;;;31.00;99.90;;;;;;4845301;29;20041;-90
2022/09/09 08:40:53;;;;;;;14.82;7.00;;;31.00;99.90;;;;;;4834755;29;20029;-92
2022/09/09 08:43:22;;;;;;;12.52;7.10;;;31.10;99.90;;;;;;4848105;29;20606;-92
2022/09/09 08:46:37;;;;;;;16.05;7.40;;;31.20;99.90;;;;;;4847988;29;20144;-93
2022/09/09 08:49:17;;;;;;;12.65;7.82;;;31.90;99.90;;;;;;4848488;29;20041;-92
2022/09/09 08:51:44;;;;;;;15.05;7.60;;;32.00;99.90;;;;;;4848147;29;20037;-91
2022/09/09 08:54:11;;;;;;;14.57;7.78;;;31.80;99.90;;;;;;4848298;29;20033;-91
2022/09/09 08:56:41;;;;;;;16.02;7.47;;;31.50;99.90;;;;;;4848257;29;20120;-91
2022/09/09 08:59:14;;;;;;;17.85;7.40;;;31.00;99.90;;;;;;4848552;29;20124;-91
2022/09/09 09:01:58;;;;;;;19.98;7.63;;;30.60;99.90;;;;;;4847954;29;20163;-92
2022/09/09 09:05:06;;;;;;;10.68;6.70;;;30.50;99.90;;;;;;4861543;29;20048;-94
2022/09/09 09:07:53;;;;;;;22.33;7.78;;;30.70;99.90;;;;;;4864213;29;20407;-94
2022/09/09 09:10:36;;;;;;;11.98;7.32;;;31.20;99.90;;;;;;4874349;29;20089;-93
2022/09/09 09:18:50;;;;;;;24.45;8.50;;;31.70;99.90;;;;;;5472539;23;20053;-89
2022/09/09 09:21:38;;;;;;;10.82;7.85;;;32.00;99.90;;;;;;4867253;29;20116;-90
2022/09/09 09:24:19;;;;;;;18.00;8.70;;;32.20;99.90;;;;;;4833302;29;20510;-90
2022/09/09 09:26:47;;;;;;;19.20;8.30;;;32.40;99.90;;;;;;4833146;29;20583;-87
2022/09/09 09:29:19;;;;;;;17.05;8.38;;;32.60;99.90;;;;;;4833048;29;20049;-87
2022/09/09 10:55:26;;;;;;;20.75;9.68;;;32.90;99.90;;;;;;5549478;23;20542;-91
2022/09/09 10:58:02;;;;;;;16.92;9.52;;;33.10;99.90;;;;;;4890176;29;20096;-93
2022/09/09 11:17:00;;;;;;;23.30;10.55;;;32.50;99.90;;;;;;4905268;29;20076;-93
2022/09/09 11:19:41;;;;;;;18.65;10.40;;;32.60;99.90;;;;;;4888312;29;20593;-93
2022/09/09 11:22:18;;;;;;;18.27;10.02;;;32.30;99.90;;;;;;4889749;29;20044;-94
2022/09/09 11:54:59;;;;;;;28.00;10.93;;;32.80;99.90;;;;;;4845001;29;20057;-93
2022/09/09 11:58:21;;;;;;;17.90;10.45;;;32.50;99.90;;;;;;4877667;29;20058;-92
2022/09/09 12:01:41;;;;;;;22.15;10.82;;;32.30;99.90;;;;;;4829904;29;20047;-93
2022/09/09 12:07:07;;;;;;;20.83;10.77;;;32.10;99.90;;;;;;4909775;23;20064;-92
2022/09/09 12:21:01;;;;;;;;;;;;;;;;;;;;;
2022/09/09 12:24:09;;;;;;;24.10;10.73;;;32.40;99.90;;;;;;4884648;29;20037;-92
2022/09/09 12:27:09;;;;;;;;;;;;;;;;;;;;;
2022/09/09 12:55:55;;;;;;;23.48;10.95;;;32.50;99.90;;;;;;4833379;29;20046;-92
2022/09/09 13:02:30;;;;;;;19.15;10.43;;;32.50;99.90;;;;;;4856213;29;20042;-93
2022/09/09 13:10:33;;;;;;;23.55;11.57;;;32.30;99.90;;;;;;5029972;23;20080;-93
2022/09/09 13:13:24;;;;;;;24.45;10.55;;;31.80;99.90;;;;;;4860676;29;20037;-93
2022/09/09 13:16:13;;;;;;;19.42;9.63;;;31.50;99.90;;;;;;4867222;29;20042;-92
2022/09/09 13:18:55;;;;;;;;;;;;;;;;;;;;;
2022/09/09 13:27:39;;;;;;;24.25;10.93;;;31.50;99.90;;;;;;5524993;23;20095;-93
2022/09/09 13:30:32;;;;;;;23.33;9.95;;;31.50;99.90;;;;;;4931989;23;20063;-93
2022/09/09 13:33:19;;;;;;;18.63;10.15;;;31.70;99.90;;;;;;4896171;29;20040;-93
2022/09/09 13:38:55;;;;;;;27.85;11.30;;;31.70;99.90;;;;;;4881021;29;20052;-93
2022/09/09 14:14:13;;;;;;;;;;;;;;;;;;;;;
2022/09/09 14:17:59;;;;;;;15.02;9.50;;;31.30;99.90;;;;;;5050629;23;20120;-94
2022/09/09 14:30:46;;;;;;;20.00;10.18;;;31.30;99.90;;;;;;5266446;23;20518;-93
2022/09/09 14:55:10;;;;;;;21.73;9.65;;;30.70;99.90;;;;;;4880915;29;20033;-92
2022/09/09 14:58:28;;;;;;;27.38;9.98;;;30.70;99.90;;;;;;4854784;29;20085;-93
2022/09/09 15:01:16;;;;;;;17.15;9.20;;;30.70;99.90;;;;;;4852019;29;20045;-93
2022/09/09 15:04:19;;;;;;;22.88;9.98;;;30.60;99.90;;;;;;4850329;29;20093;-93
2022/09/09 15:10:08;;;;;;;26.77;10.27;;;30.70;99.90;;;;;;4880295;29;20125;-93
2022/09/09 15:12:38;;;;;;;24.70;9.60;;;30.50;99.90;;;;;;4887137;29;20108;-92
2022/09/09 15:15:06;;;;;;;21.73;10.32;;;30.20;99.90;;;;;;4880656;29;20025;-94
2022/09/09 15:17:33;;;;;;;25.75;10.25;;;30.40;99.90;;;;;;4880641;29;20077;-90
2022/09/09 15:20:00;;;;;;;22.60;10.27;;;30.30;99.90;;;;;;4850142;29;20029;-91
2022/09/09 15:22:26;;;;;;;23.40;10.27;;;30.20;99.90;;;;;;4865095;29;20418;-94
2022/09/09 15:24:54;;;;;;;28.08;10.40;;;30.30;99.90;;;;;;4865294;29;20022;-91
2022/09/09 15:27:20;;;;;;;19.88;9.75;;;30.30;99.90;;;;;;4865267;29;20060;-93
2022/09/09 15:29:47;;;;;;;24.08;9.80;;;30.20;99.90;;;;;;4865060;29;20026;-91
2022/09/09 15:32:13;;;;;;;24.23;10.32;;;30.10;99.90;;;;;;4865398;29;20119;-92
2022/09/09 15:34:40;;;;;;;24.17;9.85;;;30.00;99.90;;;;;;4865183;29;20398;-92
2022/09/09 15:37:10;;;;;;;23.63;9.65;;;29.90;99.90;;;;;;4864912;29;20112;-92
2022/09/09 15:39:37;;;;;;;22.50;8.52;;;29.90;99.90;;;;;;4866021;29;20124;-93
2022/09/09 15:42:08;;;;;;;24.52;8.80;;;29.70;99.90;;;;;;4852055;29;20455;-92
2022/09/09 15:44:42;;;;;;;21.73;9.02;;;29.70;99.90;;;;;;4865371;29;20048;-91
2022/09/09 15:47:12;;;;;;;20.75;8.98;;;29.50;99.90;;;;;;4864822;29;20033;-93
2022/09/09 15:49:39;;;;;;;20.33;8.80;;;29.40;99.90;;;;;;4865053;29;20406;-94
2022/09/09 15:52:06;;;;;;;30.77;9.40;;;29.40;99.90;;;;;;4865271;29;20033;-92
2022/09/09 15:54:35;;;;;;;29.48;9.15;;;29.40;99.90;;;;;;4865363;29;20036;-93
2022/09/09 15:57:04;;;;;;;27.20;9.02;;;29.40;99.90;;;;;;4865168;29;20040;-92
2022/09/09 15:59:33;;;;;;;24.20;9.18;;;29.40;99.90;;;;;;4849609;29;20057;-91
2022/09/09 16:02:01;;;;;;;20.88;8.70;;;29.40;99.90;;;;;;4864183;29;20072;-92
2022/09/09 16:04:28;;;;;;;18.83;8.68;;;29.00;99.90;;;;;;4864350;29;20029;-90
2022/09/09 16:07:03;;;;;;;17.90;8.30;;;28.90;99.90;;;;;;4864387;29;20033;-92
2022/09/09 16:09:31;;;;;;;20.55;8.18;;;28.70;99.90;;;;;;4879526;29;20049;-91
2022/09/09 16:12:00;;;;;;;24.10;7.85;;;28.60;99.90;;;;;;4864401;29;20063;-93
2022/09/09 16:14:27;;;;;;;23.05;8.95;;;28.50;99.90;;;;;;4864271;29;20475;-91
2022/09/09 16:16:54;;;;;;;26.52;9.40;;;28.30;99.90;;;;;;4864315;29;20033;-90
2022/09/09 16:19:21;;;;;;;23.65;9.05;;;28.20;99.90;;;;;;4864117;29;20037;-92
2022/09/09 16:21:50;;;;;;;23.67;9.15;;;28.10;99.90;;;;;;4863735;29;20033;-92
2022/09/09 16:24:19;;;;;;;24.25;8.50;;;28.10;99.90;;;;;;4864255;29;20116;-89
2022/09/09 16:26:54;;;;;;;32.20;8.27;;;28.00;99.90;;;;;;4864146;29;20025;-90
2022/09/09 16:29:22;;;;;;;34.08;9.07;;;28.00;99.90;;;;;;4864072;29;20040;-90
2022/09/09 16:31:49;;;;;;;17.80;9.07;;;28.10;99.90;;;;;;4864598;29;20124;-89
2022/09/09 16:34:18;;;;;;;25.25;8.07;;;27.90;99.90;;;;;;4864229;29;20089;-90
2022/09/09 16:36:45;;;;;;;21.13;8.38;;;27.80;99.90;;;;;;4863936;29;20037;-92
2022/09/09 16:39:15;;;;;;;19.45;9.05;;;27.70;99.90;;;;;;4864057;29;20495;-92
2022/09/09 16:41:44;;;;;;;25.85;9.18;;;27.60;99.90;;;;;;4863845;29;20037;-90
2022/09/09 16:44:15;;;;;;;22.38;8.65;;;27.60;99.90;;;;;;4864685;29;20041;-93
2022/09/09 16:46:43;;;;;;;27.38;8.63;;;27.60;99.90;;;;;;4864002;29;20044;-94
2022/09/09 16:49:14;;;;;;;24.65;9.38;;;27.50;99.90;;;;;;4864083;29;20112;-92
2022/09/09 16:51:45;;;;;;;42.33;10.75;;;27.40;99.90;;;;;;4864162;29;20513;-91
2022/09/09 16:54:13;;;;;;;24.98;10.57;;;27.30;99.90;;;;;;4863800;29;20033;-92
2022/09/09 16:56:43;;;;;;;37.90;9.95;;;27.30;99.90;;;;;;4865368;29;20030;-92
2022/09/09 16:59:16;;;;;;;32.40;9.45;;;27.30;99.90;;;;;;4863651;29;20033;-92
2022/09/09 17:01:45;;;;;;;33.30;9.77;;;27.30;99.90;;;;;;4864641;29;20048;-92
2022/09/09 17:04:16;;;;;;;23.20;9.23;;;27.20;99.90;;;;;;4864229;29;20037;-92
2022/09/09 17:06:47;;;;;;;37.60;10.23;;;27.20;99.90;;;;;;4864219;29;20069;-91
2022/09/09 17:09:14;;;;;;;35.90;10.20;;;27.20;99.90;;;;;;4864450;29;20049;-91
2022/09/09 17:11:41;;;;;;;25.67;9.43;;;27.20;99.90;;;;;;4863793;29;20056;-90
2022/09/09 17:14:11;;;;;;;25.85;9.68;;;27.10;99.90;;;;;;4863739;29;20059;-92
2022/09/09 17:16:39;;;;;;;24.67;9.43;;;27.10;99.90;;;;;;4863909;29;20025;-92
2022/09/09 17:19:08;;;;;;;21.17;9.35;;;27.00;99.90;;;;;;4864552;29;20080;-91
2022/09/09 17:21:35;;;;;;;29.05;10.13;;;27.00;99.90;;;;;;4864838;29;20049;-91
2022/09/09 17:24:03;;;;;;;26.23;9.32;;;26.90;99.90;;;;;;4864956;29;20029;-92
2022/09/09 17:26:36;;;;;;;27.33;9.40;;;27.00;99.90;;;;;;4864226;29;20451;-92
2022/09/09 17:29:04;;;;;;;27.00;8.90;;;26.90;99.90;;;;;;4865083;29;20037;-93
2022/09/09 17:31:33;;;;;;;29.38;8.95;;;26.90;99.90;;;;;;4865977;29;20033;-92
2022/09/09 17:34:01;;;;;;;30.02;9.07;;;26.90;99.90;;;;;;4867945;29;20060;-92
2022/09/09 17:36:32;;;;;;;32.17;9.43;;;26.80;99.90;;;;;;4867454;29;20491;-92
2022/09/09 17:38:59;;;;;;;29.13;9.48;;;26.80;99.90;;;;;;4867291;29;20037;-93
2022/09/09 17:41:30;;;;;;;34.08;9.70;;;26.80;99.90;;;;;;4866851;29;20028;-92
2022/09/09 17:43:56;;;;;;;33.25;10.68;;;26.80;99.90;;;;;;4866942;29;20080;-92
2022/09/09 17:46:30;;;;;;;32.65;9.77;;;26.80;99.90;;;;;;4866805;29;20032;-92
2022/09/09 17:49:00;;;;;;;30.17;8.93;;;26.80;99.90;;;;;;4851447;29;20503;-92
2022/09/09 17:51:30;;;;;;;35.08;9.95;;;26.70;99.90;;;;;;4866658;29;20502;-92
2022/09/09 17:54:00;;;;;;;24.17;9.75;;;26.70;99.90;;;;;;4866696;29;20045;-92
2022/09/09 17:56:32;;;;;;;25.95;9.70;;;26.70;99.90;;;;;;4866729;29;20044;-93
2022/09/09 17:59:02;;;;;;;33.90;9.35;;;26.70;99.90;;;;;;4868529;29;20041;-92
2022/09/09 18:01:33;;;;;;;27.52;10.23;;;26.70;99.90;;;;;;4867772;29;20025;-92
2022/09/09 18:04:03;;;;;;;26.67;9.75;;;26.70;99.90;;;;;;4866684;29;20033;-92
2022/09/09 18:06:33;;;;;;;31.38;10.48;;;26.70;99.90;;;;;;4866710;29;20033;-92
2022/09/09 18:09:12;;;;;;;27.17;10.32;;;26.70;99.90;;;;;;4867054;29;20049;-92
2022/09/09 18:11:42;;;;;;;31.42;10.30;;;26.70;99.90;;;;;;4867215;29;20084;-91
2022/09/09 18:14:14;;;;;;;32.03;9.98;;;26.70;99.90;;;;;;4866539;29;20089;-89
2022/09/09 18:16:41;;;;;;;29.92;10.30;;;26.70;99.90;;;;;;4866353;29;20554;-91
2022/09/09 18:19:12;;;;;;;30.80;9.55;;;26.70;99.90;;;;;;4866364;29;20064;-90
2022/09/09 18:21:40;;;;;;;34.20;9.48;;;26.60;99.90;;;;;;4867334;29;20032;-92
2022/09/09 18:24:09;;;;;;;30.20;10.18;;;26.60;99.90;;;;;;4861328;29;20060;-89
2022/09/09 18:26:36;;;;;;;32.58;8.60;;;26.60;99.90;;;;;;4866695;29;20487;-90
2022/09/09 18:29:06;;;;;;;29.23;10.15;;;26.60;99.90;;;;;;4863289;29;20109;-91
2022/09/09 18:31:34;;;;;;;28.42;8.60;;;26.60;99.90;;;;;;4850557;29;20148;-90
2022/09/09 18:34:03;;;;;;;40.78;10.45;;;26.60;99.90;;;;;;4865817;29;20513;-92
2022/09/09 18:36:33;;;;;;;39.15;9.75;;;26.60;99.90;;;;;;4865917;29;20033;-91
2022/09/09 18:39:02;;;;;;;28.73;8.88;;;26.60;99.90;;;;;;4865908;29;20036;-92
2022/09/09 18:41:35;;;;;;;34.70;10.18;;;26.60;99.90;;;;;;4865652;29;20403;-91
2022/09/09 18:44:04;;;;;;;37.63;10.32;;;26.70;99.90;;;;;;4865762;29;20041;-90
2022/09/09 18:46:33;;;;;;;27.17;9.10;;;26.70;99.90;;;;;;4865696;29;20120;-91
2022/09/09 18:49:00;;;;;;;24.10;9.23;;;26.60;99.90;;;;;;4865635;29;20029;-91
2022/09/09 18:51:28;;;;;;;26.60;9.25;;;26.60;99.90;;;;;;4865815;29;20044;-91
2022/09/09 18:53:57;;;;;;;25.70;8.75;;;26.60;99.90;;;;;;4865551;29;20084;-91
2022/09/09 18:56:25;;;;;;;30.88;9.30;;;26.60;99.90;;;;;;4865694;29;20033;-91
2022/09/09 18:58:57;;;;;;;34.20;9.52;;;26.50;99.90;;;;;;4850253;29;20040;-92
2022/09/09 19:01:25;;;;;;;29.48;9.32;;;26.50;99.90;;;;;;4867120;29;20120;-92
2022/09/09 19:03:53;;;;;;;29.08;9.90;;;26.50;99.90;;;;;;4850417;29;20072;-91
2022/09/09 19:06:23;;;;;;;27.33;8.73;;;26.50;99.90;;;;;;4865574;29;20036;-92
2022/09/09 19:08:51;;;;;;;25.60;9.90;;;26.50;99.90;;;;;;4865177;29;20060;-93
2022/09/09 19:11:27;;;;;;;24.52;10.00;;;26.50;99.90;;;;;;4865462;29;20037;-91
2022/09/09 19:13:59;;;;;;;33.95;10.32;;;26.40;99.90;;;;;;4850015;29;20120;-91
2022/09/09 19:16:28;;;;;;;34.13;9.65;;;26.50;99.90;;;;;;4865600;29;20057;-90
2022/09/09 19:18:58;;;;;;;30.67;10.30;;;26.50;99.90;;;;;;4865031;29;20443;-90
2022/09/09 19:21:29;;;;;;;38.38;10.43;;;26.50;99.90;;;;;;4865130;29;20059;-91
2022/09/09 19:24:01;;;;;;;44.58;11.43;;;26.50;99.90;;;;;;4864902;29;20045;-91
2022/09/09 19:26:30;;;;;;;42.67;10.50;;;26.50;99.90;;;;;;4865109;29;20040;-92
2022/09/09 19:28:58;;;;;;;29.70;9.73;;;26.40;99.90;;;;;;4864777;29;20040;-91
2022/09/09 19:31:26;;;;;;;40.03;10.65;;;26.40;99.90;;;;;;4864829;29;20041;-92
2022/09/09 19:33:57;;;;;;;35.33;9.50;;;26.40;99.90;;;;;;4864909;29;20033;-91
2022/09/09 19:36:31;;;;;;;30.83;11.05;;;26.40;99.90;;;;;;4865053;29;20037;-91
2022/09/09 19:39:02;;;;;;;41.95;11.65;;;26.50;99.90;;;;;;4864749;29;20116;-90
2022/09/09 19:41:33;;;;;;;39.78;10.85;;;26.50;99.90;;;;;;4864551;29;20044;-89
2022/09/09 19:44:02;;;;;;;30.85;11.13;;;26.50;99.90;;;;;;4864662;29;20052;-90
2022/09/09 19:46:29;;;;;;;32.33;11.55;;;26.50;99.90;;;;;;4864518;29;20136;-88
2022/09/09 19:48:57;;;;;;;29.42;10.60;;;26.50;99.90;;;;;;4864618;29;20037;-90
2022/09/09 19:51:25;;;;;;;34.83;11.85;;;26.50;99.90;;;;;;4864497;29;20112;-89
2022/09/09 19:53:55;;;;;;;32.83;11.25;;;26.40;99.90;;;;;;4864725;29;20037;-90
2022/09/09 19:56:28;;;;;;;35.45;12.30;;;26.50;99.90;;;;;;4864154;29;20057;-92
2022/09/09 19:58:56;;;;;;;36.08;11.43;;;26.40;99.90;;;;;;4864552;29;20028;-91
2022/09/09 20:01:35;;;;;;;35.17;10.90;;;26.40;99.90;;;;;;4864451;29;20044;-92
2022/09/09 20:04:03;;;;;;;31.80;10.57;;;26.40;99.90;;;;;;4864484;29;20108;-93
2022/09/09 20:06:34;;;;;;;41.58;12.27;;;26.40;99.90;;;;;;4864276;29;20479;-90
2022/09/09 20:09:02;;;;;;;38.78;13.40;;;26.40;99.90;;;;;;4864174;29;20072;-92
2022/09/09 20:11:29;;;;;;;33.17;12.82;;;26.40;99.90;;;;;;4864431;29;20036;-91
2022/09/09 20:13:56;;;;;;;37.17;11.38;;;26.40;99.90;;;;;;4864501;29;20036;-91
2022/09/09 20:16:27;;;;;;;33.35;11.45;;;26.50;99.90;;;;;;4864711;29;20029;-92
2022/09/09 20:18:58;;;;;;;37.25;10.70;;;26.50;99.90;;;;;;4864223;29;20029;-91
2022/09/09 20:21:32;;;;;;;40.72;12.32;;;26.50;99.90;;;;;;4864395;29;20160;-89
2022/09/09 20:24:01;;;;;;;32.65;10.32;;;26.50;99.90;;;;;;4863576;29;20052;-91
2022/09/09 20:26:32;;;;;;;37.45;11.07;;;26.50;99.90;;;;;;4864096;29;20048;-90
2022/09/09 20:28:59;;;;;;;24.63;10.15;;;26.50;99.90;;;;;;4864140;29;20029;-91
2022/09/09 20:31:39;;;;;;;31.92;10.40;;;26.40;99.90;;;;;;4864235;29;20029;-90
2022/09/09 20:34:11;;;;;;;38.58;10.95;;;26.40;99.90;;;;;;4863915;29;20037;-92
2022/09/09 20:36:40;;;;;;;30.90;11.32;;;26.40;99.90;;;;;;4864034;29;20521;-90
2022/09/09 20:39:11;;;;;;;36.53;11.05;;;26.40;99.90;;;;;;4863847;29;20033;-91
2022/09/09 20:41:41;;;;;;;29.98;10.00;;;26.40;99.90;;;;;;4864032;29;20483;-91
2022/09/09 20:44:13;;;;;;;31.65;9.73;;;26.40;99.90;;;;;;4863837;29;20037;-90
2022/09/09 20:47:03;;;;;;;34.95;10.75;;;26.40;99.90;;;;;;4864197;29;20025;-90
2022/09/09 20:49:30;;;;;;;42.25;10.35;;;26.40;99.90;;;;;;4848679;29;20403;-91
2022/09/09 20:51:56;;;;;;;35.80;11.90;;;26.40;99.90;;;;;;4848622;29;20092;-91
2022/09/09 20:54:26;;;;;;;32.65;11.10;;;26.40;99.90;;;;;;4868220;29;20029;-91
2022/09/09 20:56:54;;;;;;;36.20;11.90;;;26.40;99.90;;;;;;4870392;29;20475;-89
2022/09/09 20:59:26;;;;;;;35.10;11.50;;;26.40;99.90;;;;;;4863861;29;20025;-89
2022/09/09 21:01:55;;;;;;;33.42;10.65;;;26.40;99.90;;;;;;4863645;29;20041;-90
2022/09/09 21:04:23;;;;;;;41.45;12.07;;;26.40;99.90;;;;;;4848640;29;20048;-90
2022/09/09 21:06:50;;;;;;;41.97;12.38;;;26.40;99.90;;;;;;4864372;29;20490;-91
2022/09/09 21:09:18;;;;;;;30.52;10.45;;;26.50;99.90;;;;;;4867685;29;20185;-90
2022/09/09 21:11:46;;;;;;;33.60;11.10;;;26.50;99.90;;;;;;4867565;29;20033;-90
2022/09/09 21:14:13;;;;;;;33.28;11.40;;;26.50;99.90;;;;;;4867232;29;20033;-91
2022/09/09 21:16:40;;;;;;;42.42;12.52;;;26.40;99.90;;;;;;4867380;29;20029;-90
2022/09/09 21:19:10;;;;;;;26.05;10.93;;;26.40;99.90;;;;;;4867374;29;20141;-91
2022/09/09 21:21:36;;;;;;;35.78;11.23;;;26.40;99.90;;;;;;4867291;29;20483;-91
2022/09/09 21:24:03;;;;;;;32.28;11.50;;;26.40;99.90;;;;;;4867888;29;20045;-91
2022/09/09 21:26:30;;;;;;;31.33;10.60;;;26.40;99.90;;;;;;4867249;29;20036;-91
2022/09/09 21:28:56;;;;;;;33.30;11.65;;;26.40;99.90;;;;;;4867242;29;20033;-90
2022/09/09 21:31:23;;;;;;;37.05;10.40;;;26.40;99.90;;;;;;4867108;29;20035;-91
2022/09/09 21:33:50;;;;;;;43.83;11.75;;;26.40;99.90;;;;;;4866878;29;20085;-91
2022/09/09 21:36:17;;;;;;;38.92;11.48;;;26.40;99.90;;;;;;4852188;29;20128;-91
2022/09/09 21:38:43;;;;;;;35.67;11.32;;;26.40;99.90;;;;;;4869476;29;20081;-90
2022/09/09 21:41:13;;;;;;;32.92;11.13;;;26.40;99.90;;;;;;4851853;29;20486;-89
2022/09/09 21:43:45;;;;;;;32.40;11.63;;;26.40;99.90;;;;;;4866809;29;20051;-91
2022/09/09 21:46:15;;;;;;;38.28;10.85;;;26.40;99.90;;;;;;4866862;29;20483;-90
2022/09/09 21:48:43;;;;;;;38.22;11.85;;;26.40;99.90;;;;;;4866766;29;20402;-90
2022/09/09 21:51:13;;;;;;;39.75;11.98;;;26.40;99.90;;;;;;4866769;29;20483;-91
2022/09/09 21:53:39;;;;;;;29.55;10.93;;;26.30;99.90;;;;;;4851464;29;20409;-91
2022/09/09 21:56:11;;;;;;;35.67;10.52;;;26.30;99.90;;;;;;4866647;29;20483;-90
2022/09/09 21:58:39;;;;;;;38.17;10.90;;;26.30;99.90;;;;;;4866595;29;20048;-91
2022/09/09 22:01:15;;;;;;;33.00;10.75;;;26.30;99.90;;;;;;4866730;29;20170;-91
2022/09/09 22:03:42;;;;;;;35.55;11.52;;;26.30;99.90;;;;;;4851081;29;20107;-90
2022/09/09 22:06:12;;;;;;;27.02;10.82;;;26.30;99.90;;;;;;4851234;29;20058;-91
2022/09/09 22:08:40;;;;;;;37.35;11.60;;;26.30;99.90;;;;;;4866337;29;20060;-90
2022/09/09 22:11:09;;;;;;;37.55;9.90;;;26.30;99.90;;;;;;4866393;29;20085;-92
2022/09/09 22:13:37;;;;;;;32.85;9.98;;;26.30;99.90;;;;;;4866266;29;20124;-90
2022/09/09 22:16:06;;;;;;;30.02;11.77;;;26.30;99.90;;;;;;4866364;29;20025;-92
2022/09/09 22:18:33;;;;;;;33.13;11.32;;;26.30;99.90;;;;;;4865829;29;20037;-90
2022/09/09 22:21:06;;;;;;;31.40;10.10;;;26.30;99.90;;;;;;4850736;29;20483;-90
2022/09/09 22:23:36;;;;;;;31.88;10.65;;;26.30;99.90;;;;;;4866213;29;20542;-90
2022/09/09 22:26:03;;;;;;;43.35;12.70;;;26.20;99.90;;;;;;4866129;29;20053;-91
2022/09/09 22:28:31;;;;;;;29.85;11.80;;;26.20;99.90;;;;;;4866104;29;20043;-91
2022/09/09 22:30:58;;;;;;;31.25;11.77;;;26.20;99.90;;;;;;4865863;29;20025;-92
2022/09/09 22:33:26;;;;;;;27.20;11.60;;;26.10;99.90;;;;;;4870518;29;20035;-91
2022/09/09 22:35:53;;;;;;;41.25;11.73;;;26.10;99.90;;;;;;4873823;29;20033;-91
2022/09/09 22:38:21;;;;;;;36.25;11.80;;;26.20;99.90;;;;;;4865971;29;20029;-92
2022/09/09 22:40:52;;;;;;;33.35;10.95;;;26.10;99.90;;;;;;4866084;29;20040;-91
2022/09/09 22:43:21;;;;;;;34.30;11.35;;;26.10;99.90;;;;;;4865743;29;20036;-92
2022/09/09 22:45:49;;;;;;;35.78;11.43;;;26.10;99.90;;;;;;4865752;29;20040;-93
2022/09/09 22:48:16;;;;;;;34.63;12.25;;;26.10;99.90;;;;;;4865956;29;20068;-92
2022/09/09 22:50:43;;;;;;;34.78;12.07;;;26.00;99.90;;;;;;4865762;29;20029;-91
2022/09/09 22:53:18;;;;;;;39.50;12.02;;;26.10;99.90;;;;;;4865877;29;20177;-90
2022/09/09 22:56:00;;;;;;;42.13;13.13;;;26.10;99.90;;;;;;4865532;29;20091;-91
2022/09/09 22:58:30;;;;;;;36.15;11.88;;;26.00;99.90;;;;;;4865585;29;20041;-92
2022/09/09 23:00:58;;;;;;;34.15;11.90;;;26.00;99.90;;;;;;4865657;29;20029;-91
2022/09/09 23:03:31;;;;;;;33.30;11.52;;;26.00;99.90;;;;;;4865390;29;20044;-91
2022/09/09 23:06:00;;;;;;;27.88;10.68;;;26.00;99.90;;;;;;4865363;29;20040;-91
2022/09/09 23:08:33;;;;;;;32.65;10.73;;;26.00;99.90;;;;;;4865393;29;20144;-91
2022/09/09 23:11:07;;;;;;;37.25;12.27;;;25.90;99.90;;;;;;4865416;29;20111;-91
2022/09/09 23:13:59;;;;;;;30.63;11.13;;;25.80;99.90;;;;;;4865404;29;20380;-92
2022/09/09 23:16:32;;;;;;;41.78;12.10;;;25.90;99.90;;;;;;4865159;29;20036;-91
2022/09/09 23:19:02;;;;;;;29.70;10.95;;;25.90;99.90;;;;;;4865271;29;20067;-91
2022/09/09 23:21:30;;;;;;;38.90;13.35;;;25.90;99.90;;;;;;4865257;29;20085;-92
